Time;durP1;ratioP1;P1;durP2;ratioP2;P2;SDS_P1;SDS_P2;PMS_P1;PMS_P2;Temp;Humidity;BMP_temperature;BMP_pressure;BME280_temperature;BME280_humidity;BME280_pressure;Samples;Min_cycle;Max_cycle;Signal;HPM_P1;HPM_P2
2023/06/14 00:00:12;;;;;;;0.40;0.40;;;;;;;15.99;40.84;96343.56;29396;220;63008;-51
2023/06/14 00:00:44;;;;;;;0.40;0.40;;;;;;;16.00;40.75;96347.09;29396;206;63009;-60
2023/06/14 00:01:17;;;;;;;0.40;0.40;;;;;;;15.98;40.58;96341.97;29396;197;63005;-61
2023/06/14 00:01:48;;;;;;;0.40;0.40;;;;;;;15.98;40.65;96344.69;29396;221;63009;-51
2023/06/14 00:02:19;;;;;;;0.40;0.40;;;;;;;15.95;42.66;96347.31;29396;210;63007;-60
2023/06/14 00:02:51;;;;;;;0.50;0.50;;;;;;;15.89;41.66;96349.50;29395;238;64013;-62
2023/06/14 00:03:24;;;;;;;0.40;0.40;;;;;;;15.78;43.18;96353.00;29396;211;63008;-61
2023/06/14 00:03:55;;;;;;;0.40;0.40;;;;;;;15.73;42.14;96351.28;29396;218;63009;-51
2023/06/14 00:04:27;;;;;;;0.40;0.40;;;;;;;15.71;42.01;96348.09;29396;210;63007;-52
2023/06/14 00:04:59;;;;;;;0.40;0.40;;;;;;;15.72;41.94;96357.87;29396;224;63009;-61
2023/06/14 00:05:33;;;;;;;0.40;0.40;;;;;;;15.72;41.82;96346.94;29396;215;63004;-52
2023/06/14 00:06:05;;;;;;;0.40;0.40;;;;;;;15.73;41.48;96348.53;29396;256;63009;-52
2023/06/14 00:06:36;;;;;;;0.40;0.40;;;;;;;15.73;41.59;96348.53;29396;264;63004;-52
2023/06/14 00:07:08;;;;;;;0.40;0.40;;;;;;;15.73;41.44;96349.34;29396;205;63009;-52
2023/06/14 00:07:44;;;;;;;0.40;0.40;;;;;;;15.74;41.30;96347.41;29395;291;64009;-52
2023/06/14 00:08:15;;;;;;;0.40;0.40;;;;;;;15.76;41.19;96350.59;29396;228;63009;-52
2023/06/14 00:08:46;;;;;;;0.40;0.40;;;;;;;15.76;40.99;96347.88;29396;203;63005;-52
2023/06/14 00:09:18;;;;;;;0.40;0.40;;;;;;;15.77;40.92;96348.66;29396;198;63009;-53
2023/06/14 00:09:49;;;;;;;0.40;0.40;;;;;;;15.76;41.20;96347.88;29396;209;63005;-52
2023/06/14 00:10:21;;;;;;;0.40;0.40;;;;;;;15.77;40.83;96354.12;29395;216;64013;-52
2023/06/14 00:10:52;;;;;;;0.40;0.40;;;;;;;15.76;40.93;96350.59;29396;202;63005;-53
2023/06/14 00:11:23;;;;;;;0.50;0.50;;;;;;;15.75;40.66;96349.00;29396;240;63009;-52
2023/06/14 00:11:55;;;;;;;0.40;0.40;;;;;;;15.75;40.91;96346.28;29395;263;64004;-51
2023/06/14 00:12:27;;;;;;;0.40;0.40;;;;;;;15.74;41.16;96352.88;29395;225;64013;-52
2023/06/14 00:12:59;;;;;;;0.40;0.40;;;;;;;15.74;40.95;96347.41;29396;350;63004;-52
2023/06/14 00:13:31;;;;;;;0.40;0.40;;;;;;;15.74;40.94;96347.41;29396;211;63009;-60
2023/06/14 00:14:03;;;;;;;0.40;0.40;;;;;;;15.73;41.13;96345.81;29396;239;63004;-53
2023/06/14 00:14:35;;;;;;;0.40;0.40;;;;;;;15.72;41.14;96339.53;29396;285;63008;-52
2023/06/14 00:15:09;;;;;;;0.40;0.40;;;;;;;15.72;41.08;96344.22;29396;205;63005;-51
2023/06/14 00:15:42;;;;;;;0.40;0.40;;;;;;;15.72;41.03;96346.94;29396;255;63009;-52
2023/06/14 00:16:16;;;;;;;0.40;0.40;;;;;;;15.71;40.91;96348.09;29395;263;64009;-53
2023/06/14 00:16:48;;;;;;;0.40;0.40;;;;;;;15.70;41.30;96339.06;29396;224;63009;-53
2023/06/14 00:17:19;;;;;;;0.40;0.40;;;;;;;15.70;41.45;96347.28;29396;242;63005;-52
2023/06/14 00:17:50;;;;;;;0.40;0.40;;;;;;;15.69;41.04;96347.63;29396;208;63009;-52
2023/06/14 00:18:26;;;;;;;0.40;0.40;;;;;;;15.67;41.16;96347.16;29396;211;63000;-60
2023/06/14 00:18:57;;;;;;;0.40;0.40;;;;;;;15.68;41.17;96348.75;29396;196;63009;-52
2023/06/14 00:19:30;;;;;;;0.40;0.40;;;;;;;15.69;41.38;96344.88;29396;241;63004;-52
2023/06/14 00:20:07;;;;;;;0.40;0.40;;;;;;;15.70;41.16;96351.94;29396;202;63009;-52
2023/06/14 00:20:39;;;;;;;0.40;0.40;;;;;;;15.71;41.23;96345.34;29395;223;64004;-51
2023/06/14 00:21:12;;;;;;;0.40;0.40;;;;;;;15.72;41.01;96344.22;29396;223;63009;-51
2023/06/14 00:21:43;;;;;;;0.40;0.40;;;;;;;15.73;40.64;96348.53;29395;216;64009;-51
2023/06/14 00:22:15;;;;;;;0.40;0.40;;;;;;;15.76;40.68;96345.13;29396;212;63009;-52
2023/06/14 00:22:47;;;;;;;0.40;0.40;;;;;;;15.77;40.43;96352.19;29396;209;63005;-52
2023/06/14 00:23:19;;;;;;;0.40;0.40;;;;;;;15.80;40.57;96348.78;29396;217;63009;-52
2023/06/14 00:23:50;;;;;;;0.40;0.40;;;;;;;15.82;40.17;96349.25;29395;232;64009;-52
2023/06/14 00:24:21;;;;;;;0.40;0.40;;;;;;;15.85;40.43;96347.78;29396;238;63009;-52
2023/06/14 00:24:53;;;;;;;0.40;0.40;;;;;;;15.87;39.85;96340.81;29396;212;63005;-52
2023/06/14 00:25:27;;;;;;;0.40;0.40;;;;;;;15.90;39.97;96348.34;29396;228;63009;-52
2023/06/14 00:25:58;;;;;;;0.50;0.50;;;;;;;15.93;39.94;96349.63;29396;223;63004;-52
2023/06/14 00:26:30;;;;;;;0.40;0.40;;;;;;;15.96;39.71;96348.91;29396;219;63009;-51
2023/06/14 00:27:01;;;;;;;0.40;0.40;;;;;;;15.96;39.62;96344.25;29396;243;63004;-52
2023/06/14 00:27:32;;;;;;;0.40;0.40;;;;;;;15.99;39.60;96348.22;29396;248;63009;-52
2023/06/14 00:28:04;;;;;;;0.40;0.40;;;;;;;16.01;39.56;96346.75;29396;202;63004;-52
2023/06/14 00:28:35;;;;;;;0.50;0.50;;;;;;;16.03;39.50;96341.75;29396;239;63008;-53
2023/06/14 00:29:06;;;;;;;0.40;0.40;;;;;;;16.05;39.11;96342.19;29395;231;64009;-60
2023/06/14 00:29:37;;;;;;;0.50;0.50;;;;;;;16.06;39.25;96346.53;29396;221;63009;-52
2023/06/14 00:30:10;;;;;;;0.47;0.47;;;;;;;16.09;39.32;96351.34;29396;222;63005;-59
2023/06/14 00:30:43;;;;;;;0.40;0.40;;;;;;;16.11;39.13;96347.44;29396;253;63009;-52
2023/06/14 00:31:15;;;;;;;0.40;0.40;;;;;;;16.12;39.49;96351.78;29396;196;63005;-53
2023/06/14 00:31:46;;;;;;;0.50;0.50;;;;;;;16.12;39.15;96347.12;29396;241;63014;-61
2023/06/14 00:32:19;;;;;;;0.40;0.40;;;;;;;16.15;39.17;96345.62;29396;258;63005;-52
2023/06/14 00:32:51;;;;;;;0.40;0.40;;;;;;;16.15;39.43;96351.09;29395;270;64013;-52
2023/06/14 00:33:22;;;;;;;0.40;0.40;;;;;;;16.17;39.39;96346.09;29396;214;63004;-51
2023/06/14 00:33:54;;;;;;;0.40;0.40;;;;;;;16.16;39.04;96336.28;29396;242;63009;-51
2023/06/14 00:34:25;;;;;;;0.40;0.40;;;;;;;16.17;39.21;96351.56;29396;209;63004;-51
2023/06/14 00:34:56;;;;;;;0.40;0.40;;;;;;;16.18;39.29;96351.22;29396;210;63009;-60
2023/06/14 00:35:28;;;;;;;0.40;0.40;;;;;;;16.19;38.92;96346.56;29396;274;63004;-60
2023/06/14 00:35:59;;;;;;;0.40;0.40;;;;;;;16.19;39.09;96341.06;29396;208;63008;-52
2023/06/14 00:36:31;;;;;;;0.40;0.40;;;;;;;16.18;40.74;96345.75;29396;244;63008;-52
2023/06/14 00:37:03;;;;;;;0.40;0.40;;;;;;;16.12;41.15;96349.06;29397;239;63009;-52
2023/06/14 00:37:35;;;;;;;0.40;0.40;;;;;;;16.07;41.93;96345.41;29397;202;63005;-52
2023/06/14 00:38:06;;;;;;;0.40;0.40;;;;;;;16.03;41.96;96355.41;29396;270;64014;-52
2023/06/14 00:38:38;;;;;;;0.40;0.40;;;;;;;16.00;41.56;96355.31;29397;219;63005;-51
2023/06/14 00:39:11;;;;;;;0.40;0.40;;;;;;;16.00;41.68;96352.56;29397;222;63009;-52
2023/06/14 00:39:43;;;;;;;0.40;0.40;;;;;;;15.99;41.44;96345.50;29397;238;63005;-52
2023/06/14 00:40:14;;;;;;;0.40;0.40;;;;;;;15.99;40.97;96340.81;29397;371;63009;-60
2023/06/14 00:40:46;;;;;;;0.40;0.40;;;;;;;15.99;41.15;96348.22;29397;347;63004;-51
2023/06/14 00:41:17;;;;;;;0.40;0.40;;;;;;;15.99;40.78;96351.78;29397;216;63009;-52
2023/06/14 00:41:49;;;;;;;0.40;0.40;;;;;;;15.98;40.95;96352.91;29397;254;63004;-52
2023/06/14 00:42:28;;;;;;;0.40;0.40;;;;;;;15.97;41.01;96345.03;29397;247;63009;-51
2023/06/14 00:42:59;;;;;;;0.40;0.40;;;;;;;15.96;40.55;96349.72;29397;223;63010;-52
2023/06/14 00:43:30;;;;;;;0.40;0.40;;;;;;;15.95;40.87;96350.84;29396;206;64013;-53
2023/06/14 00:44:02;;;;;;;0.40;0.40;;;;;;;15.94;40.74;96346.50;29397;223;63005;-51
2023/06/14 00:44:33;;;;;;;0.40;0.40;;;;;;;15.93;40.74;96344.16;29397;202;63027;-51
2023/06/14 00:45:06;;;;;;;0.40;0.40;;;;;;;15.91;40.80;96347.22;29397;202;63009;-52
2023/06/14 00:45:37;;;;;;;0.40;0.40;;;;;;;15.87;40.71;96343.56;29397;246;63009;-52
2023/06/14 00:46:08;;;;;;;0.40;0.40;;;;;;;15.83;42.03;96348.13;29397;243;63005;-52
2023/06/14 00:46:40;;;;;;;0.40;0.40;;;;;;;15.77;42.30;96349.47;29397;343;63009;-52
2023/06/14 00:47:11;;;;;;;0.40;0.40;;;;;;;15.74;42.67;96350.13;29397;230;63005;-52
2023/06/14 00:47:45;;;;;;;0.40;0.40;;;;;;;15.67;42.79;96352.63;29397;197;63009;-52
2023/06/14 00:48:17;;;;;;;0.40;0.40;;;;;;;15.60;45.15;96357.84;29397;218;63004;-52
2023/06/14 00:48:49;;;;;;;0.40;0.40;;;;;;;15.54;44.29;96346.31;29396;227;64013;-51
2023/06/14 00:49:22;;;;;;;0.40;0.40;;;;;;;15.50;43.94;96353.59;29397;246;63004;-52
2023/06/14 00:49:55;;;;;;;0.40;0.40;;;;;;;15.46;43.90;96351.88;29396;205;63009;-53
2023/06/14 00:50:27;;;;;;;0.40;0.40;;;;;;;15.40;44.15;96352.06;29396;217;63004;-52
2023/06/14 00:51:03;;;;;;;0.40;0.40;;;;;;;15.36;45.07;96362.06;29396;222;63015;-51
2023/06/14 00:51:37;;;;;;;0.50;0.50;;;;;;;15.35;43.78;96357.75;29396;228;63014;-51
2023/06/14 00:52:12;;;;;;;0.40;0.40;;;;;;;15.36;43.63;96350.34;29396;251;63005;-50
2023/06/14 00:52:43;;;;;;;0.40;0.40;;;;;;;15.36;43.16;96353.09;29396;198;63005;-51
2023/06/14 00:53:18;;;;;;;0.40;0.40;;;;;;;15.37;42.90;96351.94;29396;209;63009;-51
2023/06/14 00:53:51;;;;;;;0.40;0.40;;;;;;;15.37;42.52;96350.00;29395;214;64009;-52
2023/06/14 00:54:22;;;;;;;0.40;0.40;;;;;;;15.37;42.68;96352.75;29396;247;63017;-51
2023/06/14 00:54:53;;;;;;;0.40;0.40;;;;;;;15.38;42.57;96351.59;29396;265;63005;-51
2023/06/14 00:55:25;;;;;;;0.40;0.40;;;;;;;15.36;42.35;96348.41;29396;205;63009;-51
2023/06/14 00:55:56;;;;;;;0.40;0.40;;;;;;;15.36;42.65;96353.88;29396;215;63004;-51
2023/06/14 00:56:29;;;;;;;0.40;0.40;;;;;;;15.35;42.49;96349.53;29396;205;63009;-50
2023/06/14 00:57:01;;;;;;;0.40;0.40;;;;;;;15.34;42.29;96349.87;29396;226;63004;-52
2023/06/14 00:57:32;;;;;;;0.40;0.40;;;;;;;15.32;42.29;96352.94;29396;213;63009;-50
2023/06/14 00:58:04;;;;;;;0.40;0.40;;;;;;;15.33;42.69;96354.53;29396;228;63004;-51
2023/06/14 00:58:35;;;;;;;0.40;0.40;;;;;;;15.32;42.88;96352.94;29395;250;64013;-52
2023/06/14 00:59:07;;;;;;;0.40;0.40;;;;;;;15.32;42.43;96344.75;29395;223;64009;-51
2023/06/14 00:59:44;;;;;;;0.40;0.40;;;;;;;15.29;42.68;96350.87;29396;273;63025;-52
2023/06/14 01:00:16;;;;;;;0.40;0.40;;;;;;;15.28;42.96;96352.03;29396;256;63005;-52
2023/06/14 01:00:48;;;;;;;0.40;0.40;;;;;;;15.28;43.02;96352.03;29396;227;63013;-52
2023/06/14 01:01:19;;;;;;;0.40;0.40;;;;;;;15.27;43.34;96350.41;29396;251;63005;-51
2023/06/14 01:01:51;;;;;;;0.40;0.40;;;;;;;15.25;43.01;96358.16;29396;243;63009;-52
2023/06/14 01:02:24;;;;;;;0.40;0.40;;;;;;;15.23;42.89;96354.19;29396;204;63000;-51
2023/06/14 01:02:55;;;;;;;0.40;0.40;;;;;;;15.23;43.06;96354.19;29396;215;63009;-60
2023/06/14 01:03:28;;;;;;;0.50;0.50;;;;;;;15.23;42.89;96355.00;29395;249;64009;-52
2023/06/14 01:04:01;;;;;;;0.40;0.40;;;;;;;15.22;43.78;96350.66;29396;228;63009;-51
2023/06/14 01:04:36;;;;;;;0.40;0.40;;;;;;;15.21;43.22;96357.25;29395;218;64009;-52
2023/06/14 01:05:10;;;;;;;0.40;0.40;;;;;;;15.20;43.08;96355.66;29396;242;63009;-61
2023/06/14 01:05:44;;;;;;;0.40;0.40;;;;;;;15.19;43.96;96354.06;29396;197;63011;-52
2023/06/14 01:06:42;;;;;;;0.40;0.40;;;;;;;15.11;45.04;96357.66;29395;240;64013;-52
2023/06/14 01:07:46;;;;;;;0.40;0.40;;;;;;;15.10;43.90;96353.31;29396;220;63005;-52
2023/06/14 01:08:47;;;;;;;0.40;0.40;;;;;;;15.11;43.16;96351.38;29396;536;63008;-52
2023/06/14 01:09:47;;;;;;;0.50;0.50;;;;;;;15.14;43.23;96354.25;29395;250;64009;-59
2023/06/14 01:10:51;;;;;;;0.40;0.40;;;;;;;15.10;43.97;96350.59;29395;258;64009;-52
2023/06/14 01:11:33;;;;;;;0.40;0.40;;;;;;;15.09;43.46;96359.91;29396;261;63004;-52
2023/06/14 01:12:53;;;;;;;0.40;0.40;;;;;;;15.07;43.32;96357.53;29396;204;63009;-51
2023/06/14 01:13:32;;;;;;;0.50;0.50;;;;;;;15.07;43.02;96345.78;29395;399;64008;-52
2023/06/14 01:14:05;;;;;;;0.50;0.50;;;;;;;15.06;43.17;96350.47;29396;424;63008;-51
2023/06/14 01:14:38;;;;;;;0.40;0.40;;;;;;;15.07;43.07;96356.72;29395;389;64009;-52
2023/06/14 01:15:10;;;;;;;0.50;0.50;;;;;;;15.05;43.71;96348.06;29396;245;63009;-52
2023/06/14 01:15:44;;;;;;;0.40;0.40;;;;;;;15.03;43.08;96347.59;29396;198;63005;-52
2023/06/14 01:16:16;;;;;;;0.50;0.50;;;;;;;15.05;43.04;96348.06;29396;226;63009;-52
2023/06/14 01:16:52;;;;;;;0.50;0.50;;;;;;;15.05;43.24;96353.53;29396;261;63005;-60
2023/06/14 01:17:26;;;;;;;0.50;0.50;;;;;;;15.05;43.22;96348.84;29396;241;63009;-51
2023/06/14 01:18:03;;;;;;;0.50;0.50;;;;;;;15.05;42.96;96354.31;29395;202;64009;-52
2023/06/14 01:18:34;;;;;;;0.50;0.50;;;;;;;15.05;42.87;96354.31;29396;315;63009;-52
2023/06/14 01:19:13;;;;;;;0.40;0.40;;;;;;;15.06;43.09;96357.84;29396;252;63000;-52
2023/06/14 01:19:45;;;;;;;0.40;0.40;;;;;;;15.06;43.07;96357.84;29396;208;63009;-60
2023/06/14 01:20:17;;;;;;;0.50;0.50;;;;;;;15.05;43.87;96361.72;29396;233;63004;-52
2023/06/14 01:20:49;;;;;;;0.50;0.50;;;;;;;15.01;43.40;96355.31;29396;228;63008;-51
2023/06/14 01:21:22;;;;;;;0.50;0.50;;;;;;;15.00;43.43;96357.25;29396;213;63004;-52
2023/06/14 01:21:53;;;;;;;0.50;0.50;;;;;;;15.01;43.29;96358.06;29396;234;63014;-51
2023/06/14 01:22:27;;;;;;;0.50;0.50;;;;;;;15.00;43.57;96356.44;29396;273;63005;-60
2023/06/14 01:22:59;;;;;;;0.50;0.50;;;;;;;15.01;43.72;96361.59;29395;208;64013;-52
2023/06/14 01:23:32;;;;;;;0.50;0.50;;;;;;;15.02;43.75;96359.66;29396;197;63005;-52
2023/06/14 01:24:05;;;;;;;0.50;0.50;;;;;;;15.01;43.56;96363.53;29395;197;64013;-52
2023/06/14 01:24:36;;;;;;;0.40;0.40;;;;;;;15.01;43.48;96360.78;29396;293;63005;-60
2023/06/14 01:25:08;;;;;;;0.40;0.40;;;;;;;15.00;43.73;96359.19;29396;412;63009;-51
2023/06/14 01:25:40;;;;;;;0.40;0.40;;;;;;;15.02;43.64;96370.59;29396;247;63004;-52
2023/06/14 01:26:12;;;;;;;0.40;0.40;;;;;;;15.01;44.08;96366.25;29396;306;63009;-51
2023/06/14 01:26:45;;;;;;;0.40;0.40;;;;;;;14.98;43.92;96369.66;29396;202;63016;-60
2023/06/14 01:27:18;;;;;;;0.50;0.50;;;;;;;14.97;44.04;96362.59;29396;370;63009;-52
2023/06/14 01:28:02;;;;;;;0.50;0.50;;;;;;;14.97;43.84;96362.59;29395;229;64008;-51
2023/06/14 01:28:35;;;;;;;0.50;0.50;;;;;;;14.96;43.82;96366.44;29396;238;63009;-52
2023/06/14 01:29:07;;;;;;;0.50;0.50;;;;;;;14.96;44.15;96363.72;29396;210;63005;-51
2023/06/14 01:29:45;;;;;;;0.50;0.50;;;;;;;14.95;43.75;96359.38;29396;213;63009;-52
2023/06/14 01:30:18;;;;;;;0.40;0.40;;;;;;;14.97;43.96;96365.31;29395;208;64009;-52
2023/06/14 01:30:53;;;;;;;0.40;0.40;;;;;;;14.97;43.96;96368.03;29396;241;63009;-52
2023/06/14 01:31:25;;;;;;;0.45;0.45;;;;;;;14.96;44.05;96366.44;29396;204;63005;-51
2023/06/14 01:31:56;;;;;;;0.50;0.50;;;;;;;14.95;44.04;96359.38;29396;198;63009;-61
2023/06/14 01:32:29;;;;;;;0.50;0.50;;;;;;;14.94;44.14;96360.50;29396;217;63005;-53
2023/06/14 01:33:01;;;;;;;0.40;0.40;;;;;;;14.95;43.91;96359.38;29396;218;63009;-51
2023/06/14 01:33:37;;;;;;;0.40;0.40;;;;;;;14.93;43.99;96364.38;29395;196;64009;-53
2023/06/14 01:34:08;;;;;;;0.40;0.40;;;;;;;14.93;44.01;96361.66;29396;261;63009;-52
2023/06/14 01:34:40;;;;;;;0.50;0.50;;;;;;;14.91;44.34;96364.72;29396;241;63004;-52
2023/06/14 01:35:12;;;;;;;0.40;0.40;;;;;;;14.90;44.12;96362.34;29396;214;63008;-52
2023/06/14 01:35:45;;;;;;;0.50;0.50;;;;;;;14.88;44.42;96367.34;29396;384;63004;-52
2023/06/14 01:36:20;;;;;;;0.50;0.50;;;;;;;14.87;44.18;96363.00;29396;203;63009;-51
2023/06/14 01:36:56;;;;;;;0.50;0.50;;;;;;;14.86;44.56;96366.88;29396;286;63009;-60
2023/06/14 01:37:29;;;;;;;0.50;0.50;;;;;;;14.83;44.32;96362.88;29396;310;63009;-61
2023/06/14 01:38:01;;;;;;;0.40;0.40;;;;;;;14.79;44.46;96361.94;29395;229;64001;-51
2023/06/14 01:38:37;;;;;;;0.40;0.40;;;;;;;14.82;44.68;96360.47;29396;286;63009;-61
2023/06/14 01:39:10;;;;;;;0.50;0.50;;;;;;;14.81;44.75;96367.84;29397;369;63005;-51
2023/06/14 01:39:44;;;;;;;0.50;0.50;;;;;;;14.80;45.15;96362.72;29397;224;63009;-51
2023/06/14 01:40:17;;;;;;;0.40;0.40;;;;;;;14.80;45.10;96362.72;29397;220;63004;-52
2023/06/14 01:40:50;;;;;;;0.40;0.40;;;;;;;14.80;45.14;96366.25;29397;249;63009;-52
2023/06/14 01:41:23;;;;;;;0.47;0.47;;;;;;;14.79;45.18;96369.31;29395;229;64009;-61
2023/06/14 01:41:55;;;;;;;0.50;0.50;;;;;;;14.78;45.23;96365.00;29397;219;63016;-52
2023/06/14 01:42:27;;;;;;;0.50;0.50;;;;;;;14.75;45.33;96367.25;29397;255;63000;-61
2023/06/14 01:42:59;;;;;;;0.40;0.40;;;;;;;14.73;45.15;96366.78;29395;453;63008;-51
2023/06/14 01:43:32;;;;;;;0.40;0.40;;;;;;;14.72;45.65;96361.66;29397;202;63004;-52
2023/06/14 01:44:07;;;;;;;0.50;0.50;;;;;;;14.72;45.36;96369.84;29395;197;63009;-52
2023/06/14 01:44:43;;;;;;;0.50;0.50;;;;;;;14.70;45.62;96361.97;29396;330;63005;-61
2023/06/14 01:45:15;;;;;;;0.47;0.47;;;;;;;14.69;45.57;96359.59;29394;212;64013;-52
2023/06/14 01:45:50;;;;;;;0.40;0.40;;;;;;;14.68;45.56;96356.06;29395;246;63000;-51
2023/06/14 01:46:22;;;;;;;0.40;0.40;;;;;;;14.67;45.63;96362.66;29393;294;64013;-61
2023/06/14 01:46:54;;;;;;;0.50;0.50;;;;;;;14.66;45.18;96361.03;29393;203;64009;-62
2023/06/14 01:47:27;;;;;;;0.40;0.40;;;;;;;14.66;45.46;96355.59;29395;230;63009;-61
2023/06/14 01:48:00;;;;;;;0.50;0.50;;;;;;;14.64;45.37;96366.03;29395;197;63004;-52
2023/06/14 01:48:32;;;;;;;0.50;0.50;;;;;;;14.64;45.30;96366.03;29395;229;63009;-60
2023/06/14 01:49:04;;;;;;;0.40;0.40;;;;;;;14.64;45.26;96359.78;29395;229;63004;-61
2023/06/14 01:49:35;;;;;;;0.40;0.40;;;;;;;14.63;45.14;96361.69;29395;219;63009;-61
2023/06/14 01:50:07;;;;;;;0.40;0.40;;;;;;;14.63;45.49;96364.44;29395;281;63004;-52
2023/06/14 01:50:39;;;;;;;0.40;0.40;;;;;;;14.61;45.37;96360.44;29395;235;63015;-60
2023/06/14 01:51:10;;;;;;;0.40;0.40;;;;;;;14.60;45.46;96364.28;29395;249;63005;-60
2023/06/14 01:51:42;;;;;;;0.40;0.40;;;;;;;14.59;46.05;96357.22;29393;352;64014;-62
2023/06/14 01:52:13;;;;;;;0.50;0.50;;;;;;;14.57;45.87;96360.28;29395;260;63005;-60
2023/06/14 01:52:46;;;;;;;0.40;0.40;;;;;;;14.54;45.66;96360.97;29395;314;63009;-52
2023/06/14 01:53:17;;;;;;;0.40;0.40;;;;;;;14.55;45.97;96361.78;29395;240;63007;-61
2023/06/14 01:53:49;;;;;;;0.40;0.40;;;;;;;14.53;45.73;96351.19;29393;207;64013;-60
2023/06/14 01:54:21;;;;;;;0.40;0.40;;;;;;;14.55;45.78;96359.84;29395;362;63005;-51
2023/06/14 01:54:53;;;;;;;0.40;0.40;;;;;;;14.54;46.06;96360.19;29395;216;63009;-62
2023/06/14 01:55:27;;;;;;;0.40;0.40;;;;;;;14.53;45.88;96364.03;29395;206;63004;-61
2023/06/14 01:55:58;;;;;;;0.50;0.50;;;;;;;14.51;45.83;96369.03;29395;222;63009;-61
2023/06/14 01:56:30;;;;;;;0.40;0.40;;;;;;;14.50;45.98;96364.69;29395;247;63004;-52
2023/06/14 01:57:02;;;;;;;0.50;0.50;;;;;;;14.48;46.24;96361.50;29395;250;63009;-51
2023/06/14 01:57:36;;;;;;;0.40;0.40;;;;;;;14.48;46.07;96367.75;29393;199;64009;-51
2023/06/14 01:58:08;;;;;;;0.43;0.43;;;;;;;14.49;46.16;96369.34;29395;493;63008;-52
2023/06/14 01:58:39;;;;;;;0.50;0.50;;;;;;;14.50;46.44;96364.69;29395;272;63004;-51
2023/06/14 01:59:11;;;;;;;0.45;0.45;;;;;;;14.51;46.31;96369.03;29395;202;63016;-61
2023/06/14 01:59:42;;;;;;;0.47;0.47;;;;;;;14.50;46.36;96365.50;29395;219;63005;-60
2023/06/14 02:00:15;;;;;;;0.40;0.40;;;;;;;14.48;46.29;96362.31;29395;257;63009;-60
2023/06/14 02:00:47;;;;;;;0.50;0.50;;;;;;;14.49;46.42;96369.34;29395;197;63005;-61
2023/06/14 02:01:18;;;;;;;0.50;0.50;;;;;;;14.47;46.61;96371.63;29393;239;64013;-53
2023/06/14 02:01:52;;;;;;;0.47;0.47;;;;;;;14.47;46.54;96368.88;29393;371;64009;-52
2023/06/14 02:02:24;;;;;;;0.50;0.50;;;;;;;14.47;46.62;96368.09;29395;237;63009;-52
2023/06/14 02:02:55;;;;;;;0.50;0.50;;;;;;;14.46;46.73;96367.28;29395;255;63004;-51
2023/06/14 02:03:27;;;;;;;0.40;0.40;;;;;;;14.44;47.14;96364.09;29393;246;64013;-51
2023/06/14 02:03:58;;;;;;;0.47;0.47;;;;;;;14.44;46.89;96366.81;29395;394;63004;-50
2023/06/14 02:04:29;;;;;;;0.50;0.50;;;;;;;14.43;46.94;96372.59;29395;196;63009;-50
2023/06/14 02:05:01;;;;;;;0.45;0.45;;;;;;;14.43;47.58;96365.22;29395;252;63004;-51
2023/06/14 02:05:34;;;;;;;0.50;0.50;;;;;;;14.41;47.45;96368.28;29395;369;63008;-60
2023/06/14 02:06:05;;;;;;;0.50;0.50;;;;;;;14.40;47.66;96366.66;29395;300;63004;-51
2023/06/14 02:06:37;;;;;;;0.50;0.50;;;;;;;14.40;47.48;96371.31;29395;220;63009;-52
2023/06/14 02:07:08;;;;;;;0.50;0.50;;;;;;;14.39;47.90;96378.69;29395;202;63005;-52
2023/06/14 02:07:40;;;;;;;0.50;0.50;;;;;;;14.38;48.00;96368.09;29395;215;63016;-51
2023/06/14 02:08:13;;;;;;;0.40;0.40;;;;;;;14.37;48.03;96369.22;29395;244;63005;-51
2023/06/14 02:08:44;;;;;;;0.40;0.40;;;;;;;14.37;48.07;96372.75;29393;247;64013;-51
2023/06/14 02:09:16;;;;;;;0.40;0.40;;;;;;;14.36;48.07;96370.34;29395;208;63005;-51
2023/06/14 02:09:48;;;;;;;0.40;0.40;;;;;;;14.34;47.97;96367.16;29395;545;63009;-51
2023/06/14 02:10:20;;;;;;;0.40;0.40;;;;;;;14.32;48.33;96359.28;29395;207;63005;-51
2023/06/14 02:10:52;;;;;;;0.40;0.40;;;;;;;14.31;48.31;96365.09;29393;249;64013;-52
2023/06/14 02:11:23;;;;;;;0.40;0.40;;;;;;;14.31;48.06;96363.16;29395;400;63004;-51
2023/06/14 02:11:55;;;;;;;0.40;0.40;;;;;;;14.30;48.48;96366.22;29393;199;64013;-52
2023/06/14 02:12:26;;;;;;;0.40;0.40;;;;;;;14.28;48.37;96363.00;29393;220;64009;-51
2023/06/14 02:13:00;;;;;;;0.40;0.40;;;;;;;14.27;48.38;96372.31;29395;203;63008;-51
2023/06/14 02:13:32;;;;;;;0.45;0.45;;;;;;;14.25;48.63;96366.41;29395;257;63004;-51
2023/06/14 02:14:06;;;;;;;0.40;0.40;;;;;;;14.24;48.32;96367.53;29395;265;63009;-51
2023/06/14 02:14:38;;;;;;;0.40;0.40;;;;;;;14.22;48.93;96369.78;29395;224;63005;-51
2023/06/14 02:15:16;;;;;;;0.40;0.40;;;;;;;14.21;49.23;96370.91;29395;257;63009;-51
2023/06/14 02:15:51;;;;;;;0.50;0.50;;;;;;;14.17;49.00;96368.06;29394;199;64009;-52
2023/06/14 02:16:22;;;;;;;0.40;0.40;;;;;;;14.16;48.55;96374.66;29395;204;63009;-53
2023/06/14 02:16:53;;;;;;;0.50;0.50;;;;;;;14.17;48.55;96368.06;29395;225;63005;-53
2023/06/14 02:17:24;;;;;;;0.47;0.47;;;;;;;14.17;48.41;96370.00;29395;256;63009;-52
2023/06/14 02:17:56;;;;;;;0.40;0.40;;;;;;;14.17;48.76;96372.72;29395;307;63005;-52
2023/06/14 02:18:27;;;;;;;0.50;0.50;;;;;;;14.17;48.89;96370.00;29395;241;63009;-52
2023/06/14 02:18:58;;;;;;;0.40;0.40;;;;;;;14.15;48.86;96375.78;29395;303;63004;-52
2023/06/14 02:19:30;;;;;;;0.40;0.40;;;;;;;14.15;48.97;96375.78;29395;239;63009;-52
2023/06/14 02:20:03;;;;;;;0.50;0.50;;;;;;;14.14;49.02;96376.09;29395;524;63004;-52
2023/06/14 02:20:35;;;;;;;0.40;0.40;;;;;;;14.16;48.92;96371.13;29395;468;63009;-52
2023/06/14 02:21:06;;;;;;;0.40;0.40;;;;;;;14.15;48.86;96375.78;29394;211;64009;-52
2023/06/14 02:21:38;;;;;;;0.50;0.50;;;;;;;14.15;48.87;96362.12;29394;208;64014;-53
2023/06/14 02:22:09;;;;;;;0.43;0.43;;;;;;;14.14;48.95;96373.37;29395;465;63005;-60
2023/06/14 02:22:41;;;;;;;0.50;0.50;;;;;;;14.15;49.08;96372.25;29394;234;64013;-51
2023/06/14 02:23:12;;;;;;;0.50;0.50;;;;;;;14.15;49.30;96374.97;29395;254;63005;-52
2023/06/14 02:23:44;;;;;;;0.40;0.40;;;;;;;14.14;48.98;96362.47;29395;244;63009;-53
2023/06/14 02:24:15;;;;;;;0.50;0.50;;;;;;;14.13;49.07;96374.50;29395;359;63005;-59
2023/06/14 02:24:47;;;;;;;0.40;0.40;;;;;;;14.14;49.07;96370.63;29395;242;63009;-51
2023/06/14 02:25:18;;;;;;;0.40;0.40;;;;;;;14.14;49.14;96370.63;29395;255;63004;-52
2023/06/14 02:25:51;;;;;;;0.40;0.40;;;;;;;14.13;48.98;96371.78;29395;211;63019;-52
2023/06/14 02:26:25;;;;;;;0.40;0.40;;;;;;;14.14;49.25;96373.37;29395;203;63004;-51
2023/06/14 02:26:56;;;;;;;0.40;0.40;;;;;;;14.14;49.22;96370.63;29395;216;63009;-51
2023/06/14 02:27:27;;;;;;;0.40;0.40;;;;;;;14.14;49.33;96374.16;29394;208;64008;-51
2023/06/14 02:27:59;;;;;;;0.40;0.40;;;;;;;14.13;49.19;96372.56;29395;258;63008;-51
2023/06/14 02:28:30;;;;;;;0.40;0.40;;;;;;;14.13;49.39;96374.50;29395;310;63005;-59
2023/06/14 02:29:01;;;;;;;0.40;0.40;;;;;;;14.12;49.11;96370.16;29395;245;63009;-51
2023/06/14 02:29:32;;;;;;;0.40;0.40;;;;;;;14.13;49.41;96374.50;29395;250;63005;-51
2023/06/14 02:30:05;;;;;;;0.40;0.40;;;;;;;14.13;49.35;96371.78;29395;242;63009;-51
2023/06/14 02:30:37;;;;;;;0.40;0.40;;;;;;;14.13;49.34;96371.78;29395;234;63005;-51
2023/06/14 02:31:08;;;;;;;0.40;0.40;;;;;;;14.12;49.21;96370.16;29395;199;63009;-51
2023/06/14 02:31:41;;;;;;;0.40;0.40;;;;;;;14.11;49.54;96369.38;29395;198;63005;-52
2023/06/14 02:32:12;;;;;;;0.40;0.40;;;;;;;14.12;49.29;96370.16;29395;278;63009;-52
2023/06/14 02:32:43;;;;;;;0.40;0.40;;;;;;;14.11;49.62;96374.03;29394;191;64009;-52
2023/06/14 02:33:15;;;;;;;0.40;0.40;;;;;;;14.11;49.61;96368.56;29395;212;63009;-52
2023/06/14 02:33:46;;;;;;;0.40;0.40;;;;;;;14.09;49.59;96372.41;29395;360;63004;-52
2023/06/14 02:34:19;;;;;;;0.40;0.40;;;;;;;14.08;49.88;96370.81;29395;218;63009;-53
2023/06/14 02:34:51;;;;;;;0.40;0.40;;;;;;;14.07;49.38;96374.69;29395;202;63004;-51
2023/06/14 02:35:26;;;;;;;0.40;0.40;;;;;;;14.05;49.79;96373.41;29395;507;63008;-51
2023/06/14 02:35:57;;;;;;;0.40;0.40;;;;;;;14.03;49.83;96373.72;29395;254;63005;-53
2023/06/14 02:36:30;;;;;;;0.47;0.47;;;;;;;14.02;49.54;96369.41;29395;526;63009;-52
2023/06/14 02:37:02;;;;;;;0.40;0.40;;;;;;;14.02;49.66;96374.84;29394;242;64009;-52
2023/06/14 02:37:34;;;;;;;0.50;0.50;;;;;;;14.00;49.85;96373.56;29394;333;64013;-52